Time;durP1;ratioP1;P1;durP2;ratioP2;P2;SDS_P1;SDS_P2;PMS_P1;PMS_P2;Temp;Humidity;BMP_temperature;BMP_pressure;BME280_temperature;BME280_humidity;BME280_pressure;Samples;Min_cycle;Max_cycle;Signal;HPM_P1;HPM_P2
2024/02/26 00:01:39;;;;;;;11.05;7.75;;;2.20;99.90;;;;;;4903698;28;22198;-63
2024/02/26 00:04:05;;;;;;;8.10;6.93;;;2.20;99.90;;;;;;4953412;28;20037;-63
2024/02/26 00:06:31;;;;;;;10.68;6.90;;;2.20;99.90;;;;;;4901820;28;20061;-62
2024/02/26 00:08:57;;;;;;;10.30;6.55;;;2.20;99.90;;;;;;4893015;28;20030;-62
2024/02/26 00:11:22;;;;;;;10.63;7.32;;;2.10;99.90;;;;;;4939297;28;20029;-62
2024/02/26 00:13:48;;;;;;;8.57;6.53;;;2.10;99.90;;;;;;4893416;28;20761;-62
2024/02/26 00:16:14;;;;;;;7.30;6.20;;;2.10;99.90;;;;;;4948892;28;21689;-62
2024/02/26 00:18:39;;;;;;;9.23;7.57;;;2.00;99.90;;;;;;4890254;28;20037;-62
2024/02/26 00:21:05;;;;;;;7.35;6.28;;;2.00;99.90;;;;;;4885860;28;20038;-62
2024/02/26 00:23:31;;;;;;;7.13;6.13;;;1.90;99.90;;;;;;4957652;28;20111;-61
2024/02/26 00:25:56;;;;;;;9.10;7.03;;;1.90;99.90;;;;;;4918428;28;20054;-62
2024/02/26 00:28:22;;;;;;;9.93;7.43;;;1.90;99.90;;;;;;4921924;28;20038;-63
2024/02/26 00:30:48;;;;;;;13.18;7.63;;;1.90;99.90;;;;;;4940132;28;20041;-62
2024/02/26 00:33:17;;;;;;;9.73;6.68;;;1.80;99.90;;;;;;4892626;28;21824;-60
2024/02/26 00:35:43;;;;;;;10.10;7.55;;;1.80;99.90;;;;;;4951577;23;20129;-49
2024/02/26 00:38:08;;;;;;;10.43;7.60;;;1.80;99.90;;;;;;4876569;28;20067;-49
2024/02/26 00:40:34;;;;;;;8.73;6.88;;;1.80;99.90;;;;;;4908258;28;20022;-47
2024/02/26 00:42:59;;;;;;;9.00;7.13;;;1.70;99.90;;;;;;4925742;28;20124;-49
2024/02/26 00:45:25;;;;;;;8.75;6.47;;;1.70;99.90;;;;;;4886829;28;20044;-53
2024/02/26 00:47:51;;;;;;;9.55;6.55;;;1.70;99.90;;;;;;4935924;28;20034;-55
2024/02/26 00:50:17;;;;;;;9.50;7.05;;;1.60;99.90;;;;;;4898243;28;20039;-49
2024/02/26 00:52:42;;;;;;;10.90;7.45;;;1.60;99.90;;;;;;4859558;28;21940;-54
2024/02/26 00:55:08;;;;;;;9.82;7.20;;;1.60;99.90;;;;;;4914933;28;20026;-50
2024/02/26 00:57:34;;;;;;;10.48;6.90;;;1.60;99.90;;;;;;4896106;28;20030;-47
2024/02/26 01:00:00;;;;;;;11.63;7.07;;;1.50;99.90;;;;;;4894069;28;20038;-55
2024/02/26 01:02:26;;;;;;;9.30;6.85;;;1.50;99.90;;;;;;4915793;28;20041;-48
2024/02/26 01:04:52;;;;;;;10.13;6.57;;;1.40;99.90;;;;;;4888991;28;20031;-53
2024/02/26 01:07:18;;;;;;;9.30;7.10;;;1.40;99.90;;;;;;4897435;28;20027;-51
2024/02/26 01:09:44;;;;;;;8.02;6.30;;;1.40;99.90;;;;;;4857522;28;20023;-53
2024/02/26 01:12:09;;;;;;;10.73;6.78;;;1.30;99.90;;;;;;4869095;28;21370;-54
2024/02/26 01:14:35;;;;;;;9.57;6.88;;;1.20;99.90;;;;;;4935675;28;21223;-51
2024/02/26 01:17:00;;;;;;;8.00;6.72;;;1.20;99.90;;;;;;4864818;28;20499;-51
2024/02/26 01:19:26;;;;;;;8.57;5.88;;;1.20;99.90;;;;;;4883567;28;20034;-48
2024/02/26 01:21:52;;;;;;;8.30;6.47;;;1.20;99.90;;;;;;4910904;28;20030;-55
2024/02/26 01:24:18;;;;;;;8.23;6.38;;;1.10;99.90;;;;;;4882592;28;21511;-49
2024/02/26 01:26:44;;;;;;;8.77;6.47;;;1.10;99.90;;;;;;4933963;28;20030;-52
2024/02/26 01:29:09;;;;;;;10.43;7.65;;;1.10;99.90;;;;;;4884612;28;20032;-52
2024/02/26 01:31:35;;;;;;;8.68;7.10;;;1.00;99.90;;;;;;4857681;28;20057;-52
2024/02/26 01:34:01;;;;;;;10.10;7.00;;;1.00;99.90;;;;;;4905932;28;20240;-52
2024/02/26 01:36:27;;;;;;;9.07;7.07;;;1.00;99.90;;;;;;4849608;28;20442;-51
2024/02/26 01:38:52;;;;;;;7.28;5.93;;;1.00;99.90;;;;;;4887231;28;20023;-59
2024/02/26 01:41:18;;;;;;;9.32;7.38;;;1.00;99.90;;;;;;4911707;28;20030;-56
2024/02/26 01:43:44;;;;;;;8.95;6.93;;;1.00;99.90;;;;;;4831660;28;20745;-50
2024/02/26 01:46:14;;;;;;;12.35;7.65;;;1.00;99.90;;;;;;4905473;28;20105;-46
2024/02/26 01:48:45;;;;;;;11.32;8.05;;;0.90;99.90;;;;;;4834145;28;20030;-53
2024/02/26 01:51:12;;;;;;;12.63;7.35;;;0.90;99.90;;;;;;4858493;28;20741;-52
2024/02/26 01:53:38;;;;;;;12.30;8.18;;;0.90;99.90;;;;;;4917772;28;21835;-55
2024/02/26 01:56:04;;;;;;;10.25;7.40;;;0.90;99.90;;;;;;4848061;28;20050;-49
2024/02/26 01:58:31;;;;;;;12.02;8.05;;;0.80;99.90;;;;;;4841742;28;20499;-57
2024/02/26 02:00:57;;;;;;;11.13;7.93;;;0.80;99.90;;;;;;4878087;28;20034;-52
2024/02/26 02:03:24;;;;;;;13.13;8.75;;;0.80;99.90;;;;;;4933361;28;20034;-50
2024/02/26 02:05:50;;;;;;;10.52;7.90;;;0.80;99.90;;;;;;4890428;28;20157;-52
2024/02/26 02:08:15;;;;;;;11.05;8.05;;;0.80;99.90;;;;;;4906442;28;20034;-56
2024/02/26 02:10:42;;;;;;;12.15;8.25;;;0.70;99.90;;;;;;4898775;28;20554;-52
2024/02/26 02:13:08;;;;;;;11.77;9.15;;;0.70;99.90;;;;;;4938977;28;20495;-50
2024/02/26 02:15:33;;;;;;;13.30;9.35;;;0.70;99.90;;;;;;4893456;28;20022;-53
2024/02/26 02:17:59;;;;;;;11.38;8.77;;;0.70;99.90;;;;;;4894403;28;20033;-54
2024/02/26 02:20:35;;;;;;;13.35;8.65;;;0.70;99.90;;;;;;4886131;28;20027;-52
2024/02/26 02:23:01;;;;;;;11.95;8.73;;;0.70;99.90;;;;;;4932784;28;20049;-52
2024/02/26 02:25:26;;;;;;;12.43;8.20;;;0.70;99.90;;;;;;4948959;28;20653;-48
2024/02/26 02:27:54;;;;;;;12.48;8.73;;;0.70;99.90;;;;;;4958692;28;20106;-52
2024/02/26 02:30:21;;;;;;;12.23;8.65;;;0.70;99.90;;;;;;4968814;28;20022;-51
2024/02/26 02:32:46;;;;;;;15.07;9.10;;;0.70;99.90;;;;;;4958483;28;20628;-51
2024/02/26 02:35:12;;;;;;;12.43;9.48;;;0.70;99.90;;;;;;4968771;28;20113;-51
2024/02/26 02:37:38;;;;;;;15.05;9.27;;;0.70;99.90;;;;;;4954499;28;20473;-52
2024/02/26 02:40:05;;;;;;;13.15;9.57;;;0.70;99.90;;;;;;4957968;28;20105;-51
2024/02/26 02:42:30;;;;;;;11.27;8.52;;;0.70;99.90;;;;;;4949665;28;20026;-51
2024/02/26 02:44:56;;;;;;;13.88;9.32;;;0.70;99.90;;;;;;4953652;28;20477;-58
2024/02/26 02:47:21;;;;;;;13.52;9.40;;;0.70;99.90;;;;;;4952007;28;20037;-58
2024/02/26 02:49:47;;;;;;;14.80;10.50;;;0.60;99.90;;;;;;4964482;28;20038;-54
2024/02/26 02:52:13;;;;;;;15.77;10.18;;;0.70;99.90;;;;;;4938020;28;20027;-53
2024/02/26 02:54:41;;;;;;;15.70;10.00;;;0.70;99.90;;;;;;4960027;28;20030;-48
2024/02/26 02:57:07;;;;;;;14.18;10.00;;;0.70;99.90;;;;;;4942759;28;20072;-50
2024/02/26 02:59:32;;;;;;;13.55;9.85;;;0.70;99.90;;;;;;4939729;28;20034;-53
2024/02/26 03:01:58;;;;;;;12.57;8.55;;;0.70;99.90;;;;;;4969335;28;20057;-50
2024/02/26 03:04:24;;;;;;;12.68;8.63;;;0.70;99.90;;;;;;4941719;28;20062;-51
2024/02/26 03:06:50;;;;;;;13.02;9.30;;;0.60;99.90;;;;;;4948001;28;20031;-57
2024/02/26 03:09:15;;;;;;;14.55;9.52;;;0.60;99.90;;;;;;4955213;28;20501;-49
2024/02/26 03:11:41;;;;;;;11.98;8.38;;;0.60;99.90;;;;;;4937612;28;22169;-52
2024/02/26 03:14:06;;;;;;;10.77;7.85;;;0.60;99.90;;;;;;4967316;28;20027;-50
2024/02/26 03:16:32;;;;;;;13.60;9.10;;;0.60;99.90;;;;;;4935664;28;20050;-54
2024/02/26 03:18:58;;;;;;;12.48;8.48;;;0.60;99.90;;;;;;4935739;28;20423;-53
2024/02/26 03:21:25;;;;;;;13.02;9.40;;;0.50;99.90;;;;;;4966751;28;20125;-50
2024/02/26 03:23:50;;;;;;;13.23;8.88;;;0.50;99.90;;;;;;4931676;28;20487;-50
2024/02/26 03:26:16;;;;;;;11.77;8.52;;;0.50;99.90;;;;;;4960550;28;20092;-53
2024/02/26 03:28:42;;;;;;;14.02;9.35;;;0.50;99.90;;;;;;4952988;28;20034;-51
2024/02/26 03:31:07;;;;;;;12.77;8.27;;;0.40;99.90;;;;;;4936532;28;20471;-52
2024/02/26 03:33:34;;;;;;;15.32;9.75;;;0.40;99.90;;;;;;4958233;28;20035;-50
2024/02/26 03:36:00;;;;;;;11.02;8.73;;;0.40;99.90;;;;;;4937082;28;20034;-50
2024/02/26 03:38:25;;;;;;;11.85;8.65;;;0.40;99.90;;;;;;4932875;28;20402;-49
2024/02/26 03:40:51;;;;;;;11.65;9.10;;;0.30;99.90;;;;;;4966067;28;20034;-50
2024/02/26 03:43:16;;;;;;;11.70;8.32;;;0.40;99.90;;;;;;4929217;28;20475;-54
2024/02/26 03:45:42;;;;;;;12.32;9.10;;;0.30;99.90;;;;;;4948705;28;20633;-49
2024/02/26 03:48:08;;;;;;;11.63;8.48;;;0.30;99.90;;;;;;4929909;28;20101;-48
2024/02/26 03:50:34;;;;;;;13.05;9.07;;;0.30;99.90;;;;;;4931003;28;20026;-52
2024/02/26 03:53:00;;;;;;;14.35;9.65;;;0.30;99.90;;;;;;4962284;28;20045;-57
2024/02/26 03:55:26;;;;;;;12.93;9.10;;;0.30;99.90;;;;;;4924934;28;20026;-50
2024/02/26 03:57:52;;;;;;;12.55;9.52;;;0.30;99.90;;;;;;4932130;28;20057;-58
2024/02/26 04:00:18;;;;;;;13.07;9.43;;;0.30;99.90;;;;;;4950701;28;20034;-57
2024/02/26 04:02:43;;;;;;;14.40;10.32;;;0.30;99.90;;;;;;4935657;28;20097;-51
2024/02/26 04:05:10;;;;;;;12.15;9.32;;;0.20;99.90;;;;;;4966162;28;20494;-51
2024/02/26 04:07:36;;;;;;;12.63;8.95;;;0.20;99.90;;;;;;4928145;28;20041;-52
2024/02/26 04:10:04;;;;;;;12.00;8.73;;;0.20;99.90;;;;;;4937225;28;20145;-51
2024/02/26 04:12:30;;;;;;;12.73;8.38;;;0.20;99.90;;;;;;4947084;28;20110;-52
2024/02/26 04:14:56;;;;;;;11.82;8.82;;;0.10;99.90;;;;;;4921253;28;20080;-49
2024/02/26 04:17:21;;;;;;;14.98;9.57;;;0.10;99.90;;;;;;4920822;28;20504;-58
2024/02/26 04:19:47;;;;;;;15.57;10.25;;;0.10;99.90;;;;;;4956483;28;20608;-53
2024/02/26 04:22:13;;;;;;;13.52;9.70;;;0.10;99.90;;;;;;4932642;28;21563;-52
2024/02/26 04:24:38;;;;;;;14.98;9.60;;;0.10;99.90;;;;;;4955453;28;20026;-51
2024/02/26 04:27:04;;;;;;;13.35;9.85;;;0.10;99.90;;;;;;4934868;28;20031;-52
2024/02/26 04:29:29;;;;;;;13.68;9.18;;;0.00;99.90;;;;;;4932783;28;20093;-54
2024/02/26 04:31:55;;;;;;;12.20;9.35;;;0.00;99.90;;;;;;4954730;28;20069;-52
2024/02/26 04:34:21;;;;;;;11.43;8.43;;;0.00;99.90;;;;;;4928839;28;20053;-51
2024/02/26 04:36:47;;;;;;;13.85;8.95;;;0.00;99.90;;;;;;4942410;28;20506;-49
2024/02/26 04:39:13;;;;;;;11.15;8.90;;;0.00;99.90;;;;;;4918252;28;20038;-52
2024/02/26 04:41:39;;;;;;;10.85;9.32;;;0.00;99.90;;;;;;4913985;28;21779;-53
2024/02/26 04:44:05;;;;;;;12.52;9.07;;;0.00;99.90;;;;;;4957371;28;20241;-51
2024/02/26 04:46:31;;;;;;;12.77;8.40;;;0.00;99.90;;;;;;4910162;28;20065;-52
2024/02/26 04:48:56;;;;;;;13.85;8.38;;;0.00;99.90;;;;;;4921169;28;20029;-46
2024/02/26 04:51:22;;;;;;;15.10;10.65;;;0.00;99.90;;;;;;4952913;28;21769;-53
2024/02/26 04:53:47;;;;;;;13.57;9.88;;;0.00;99.90;;;;;;4915314;28;20032;-49
2024/02/26 04:56:13;;;;;;;13.55;9.70;;;0.00;99.90;;;;;;4955348;28;20030;-54
2024/02/26 04:58:39;;;;;;;12.27;9.32;;;-0.10;99.90;;;;;;4909795;28;20092;-54
2024/02/26 05:01:06;;;;;;;16.92;10.88;;;0.00;99.90;;;;;;4911794;28;20033;-50
2024/02/26 05:03:31;;;;;;;18.15;10.75;;;-0.10;99.90;;;;;;4939989;28;20109;-52
2024/02/26 05:05:58;;;;;;;11.15;7.97;;;-0.10;99.90;;;;;;4898602;28;20018;-52
2024/02/26 05:08:24;;;;;;;12.23;8.75;;;-0.10;99.90;;;;;;4924500;28;20404;-58
2024/02/26 05:10:49;;;;;;;13.85;9.25;;;-0.10;99.90;;;;;;4954189;28;20026;-49
2024/02/26 05:13:17;;;;;;;18.95;11.82;;;-0.10;99.90;;;;;;4906217;28;20035;-49
2024/02/26 05:15:43;;;;;;;16.23;11.57;;;-0.10;99.90;;;;;;4935596;28;20109;-52
2024/02/26 05:18:09;;;;;;;17.75;10.45;;;-0.10;99.90;;;;;;4916963;28;20038;-50
2024/02/26 05:20:35;;;;;;;15.20;9.90;;;-0.10;99.90;;;;;;4897961;28;21931;-53
2024/02/26 05:23:01;;;;;;;16.05;10.50;;;-0.10;99.90;;;;;;4951336;28;20625;-51
2024/02/26 05:25:27;;;;;;;19.45;12.27;;;-0.10;99.90;;;;;;4900494;28;20033;-49
2024/02/26 05:27:53;;;;;;;16.35;10.68;;;0.00;99.90;;;;;;4930666;28;20176;-58
2024/02/26 05:30:18;;;;;;;20.30;11.07;;;0.00;99.90;;;;;;4940608;28;20034;-54
2024/02/26 05:32:44;;;;;;;17.40;10.90;;;0.00;99.90;;;;;;4915353;28;22060;-51
2024/02/26 05:35:09;;;;;;;24.63;12.77;;;0.10;99.90;;;;;;4950516;28;20062;-51
2024/02/26 05:37:35;;;;;;;22.48;12.50;;;0.10;99.90;;;;;;4896916;28;20022;-52
2024/02/26 05:40:03;;;;;;;21.45;13.85;;;0.20;99.90;;;;;;4912403;28;20231;-54
2024/02/26 05:42:30;;;;;;;24.45;14.35;;;0.20;99.90;;;;;;4945945;28;20027;-52
2024/02/26 05:44:55;;;;;;;19.63;13.07;;;0.30;99.90;;;;;;4907007;28;20026;-48
2024/02/26 05:47:21;;;;;;;25.23;13.70;;;0.30;99.90;;;;;;4921557;28;20454;-58
2024/02/26 05:49:46;;;;;;;30.27;13.77;;;0.30;99.90;;;;;;4937712;28;20064;-52
2024/02/26 05:52:12;;;;;;;24.52;13.32;;;0.40;99.90;;;;;;4903583;28;21556;-52
2024/02/26 05:54:37;;;;;;;41.70;15.20;;;0.40;99.90;;;;;;4929448;28;20030;-54
2024/02/26 05:57:03;;;;;;;21.00;13.70;;;0.40;99.90;;;;;;4914282;28;20054;-53
2024/02/26 05:59:29;;;;;;;60.47;13.80;;;0.40;99.90;;;;;;4897706;28;20030;-51
2024/02/26 06:01:54;;;;;;;33.35;12.63;;;0.30;99.90;;;;;;4946464;28;20053;-53
2024/02/26 06:04:20;;;;;;;31.30;12.70;;;0.30;99.90;;;;;;4911020;28;20131;-51
2024/02/26 06:06:46;;;;;;;27.13;12.10;;;0.30;99.90;;;;;;4931213;28;20030;-55
2024/02/26 06:09:11;;;;;;;47.42;12.15;;;0.20;99.90;;;;;;4896293;28;20039;-53
2024/02/26 06:11:38;;;;;;;33.63;12.38;;;0.20;99.90;;;;;;4918874;28;20901;-53
2024/02/26 06:14:03;;;;;;;27.55;11.55;;;0.20;99.90;;;;;;4943949;28;20034;-53
2024/02/26 06:16:29;;;;;;;32.83;11.13;;;0.20;99.90;;;;;;4897589;28;20034;-52
2024/02/26 06:18:54;;;;;;;37.60;11.75;;;0.20;99.90;;;;;;4901957;28;20030;-57
2024/02/26 06:21:20;;;;;;;35.70;11.73;;;0.20;99.90;;;;;;4920297;28;20026;-54
2024/02/26 06:23:46;;;;;;;30.08;12.10;;;0.20;99.90;;;;;;4902785;28;20053;-54
2024/02/26 06:26:11;;;;;;;18.40;11.18;;;0.20;99.90;;;;;;4943014;28;20041;-53
2024/02/26 06:28:40;;;;;;;15.32;10.65;;;0.20;99.90;;;;;;4883421;28;20035;-48
2024/02/26 06:31:06;;;;;;;20.25;11.63;;;0.30;99.90;;;;;;4901253;28;20050;-53
2024/02/26 06:33:32;;;;;;;30.65;12.07;;;0.30;99.90;;;;;;4933657;28;20030;-53
2024/02/26 06:35:57;;;;;;;20.45;11.38;;;0.30;99.90;;;;;;4884553;28;20061;-54
2024/02/26 06:38:23;;;;;;;16.27;10.80;;;0.30;99.90;;;;;;4934858;28;20529;-58
2024/02/26 06:40:49;;;;;;;26.13;11.18;;;0.30;99.90;;;;;;4925042;28;20088;-53
2024/02/26 06:43:14;;;;;;;15.85;10.55;;;0.30;99.90;;;;;;4899937;28;20038;-55
2024/02/26 06:45:40;;;;;;;17.77;10.90;;;0.30;99.90;;;;;;4944045;28;20530;-55
2024/02/26 06:48:06;;;;;;;17.83;9.45;;;0.30;99.90;;;;;;4884688;28;20057;-54
2024/02/26 06:50:32;;;;;;;26.38;12.27;;;0.30;99.90;;;;;;4888604;28;20085;-54
2024/02/26 06:52:57;;;;;;;18.02;10.85;;;0.40;99.90;;;;;;4940981;28;20035;-52
2024/02/26 06:55:23;;;;;;;23.70;13.18;;;0.30;99.90;;;;;;4877905;28;20118;-50
2024/02/26 06:57:48;;;;;;;18.38;11.20;;;0.40;99.90;;;;;;4956435;28;20050;-54
2024/02/26 07:00:16;;;;;;;25.17;12.05;;;0.40;99.90;;;;;;4882639;28;20118;-52
2024/02/26 07:02:42;;;;;;;22.80;11.50;;;0.40;99.90;;;;;;4889480;28;21353;-50
2024/02/26 07:05:08;;;;;;;25.08;12.52;;;0.40;99.90;;;;;;4938100;28;20036;-51
2024/02/26 07:07:34;;;;;;;29.88;12.95;;;0.40;99.90;;;;;;4900774;28;20034;-51
2024/02/26 07:10:03;;;;;;;26.90;14.05;;;0.40;99.90;;;;;;4876637;28;20724;-53
2024/02/26 07:12:29;;;;;;;30.55;12.25;;;0.50;99.90;;;;;;4927948;28;20026;-53
2024/02/26 07:14:55;;;;;;;25.23;12.30;;;0.40;99.90;;;;;;4884209;28;20081;-51
2024/02/26 07:17:20;;;;;;;40.22;13.70;;;0.50;99.90;;;;;;4921397;28;20038;-58
2024/02/26 07:19:46;;;;;;;31.05;12.55;;;0.50;99.90;;;;;;4912343;28;20226;-50
2024/02/26 07:22:12;;;;;;;40.17;12.38;;;0.50;99.90;;;;;;4881476;28;21116;-54
2024/02/26 07:24:37;;;;;;;28.50;12.95;;;0.50;99.90;;;;;;4936821;28;20038;-51
2024/02/26 07:27:03;;;;;;;29.15;13.73;;;0.50;99.90;;;;;;4893249;28;20031;-52
2024/02/26 07:29:29;;;;;;;40.83;12.18;;;0.50;99.90;;;;;;4875107;28;20027;-57
2024/02/26 07:31:55;;;;;;;24.23;12.88;;;0.60;99.90;;;;;;4933840;28;20034;-49
2024/02/26 07:34:27;;;;;;;21.25;12.02;;;0.60;99.90;;;;;;4873691;28;20034;-50
2024/02/26 07:36:53;;;;;;;30.63;12.98;;;0.60;99.90;;;;;;4909141;28;20062;-58
2024/02/26 07:39:19;;;;;;;31.23;11.15;;;0.60;99.90;;;;;;4892208;28;20122;-54
2024/02/26 07:41:46;;;;;;;26.02;11.15;;;0.70;99.90;;;;;;4884111;28;21390;-51
2024/02/26 07:44:12;;;;;;;21.65;10.95;;;0.70;99.90;;;;;;4938946;28;20026;-48
2024/02/26 07:46:37;;;;;;;17.77;10.07;;;0.70;99.90;;;;;;4871897;28;20042;-53
2024/02/26 07:49:03;;;;;;;20.80;11.15;;;0.70;99.90;;;;;;4891464;28;20035;-51
2024/02/26 07:51:28;;;;;;;23.48;11.50;;;0.80;99.90;;;;;;4911770;28;20036;-53
2024/02/26 07:53:54;;;;;;;22.00;11.50;;;0.80;99.90;;;;;;4885111;28;20042;-54
2024/02/26 07:56:20;;;;;;;23.58;12.45;;;0.80;99.90;;;;;;4911822;28;20065;-57
2024/02/26 07:58:45;;;;;;;17.73;10.15;;;0.90;99.90;;;;;;4891170;28;20030;-49
2024/02/26 08:01:14;;;;;;;20.80;12.18;;;0.90;99.90;;;;;;4881837;28;22034;-49
2024/02/26 08:03:40;;;;;;;20.92;11.35;;;0.90;99.90;;;;;;4931887;28;20038;-52
2024/02/26 08:06:05;;;;;;;19.17;10.35;;;0.90;99.90;;;;;;4862815;28;20053;-50
2024/02/26 08:08:31;;;;;;;25.95;11.88;;;1.00;99.90;;;;;;4888813;28;20088;-52
2024/02/26 08:10:56;;;;;;;17.63;10.32;;;1.00;99.90;;;;;;4934316;28;20034;-53
2024/02/26 08:13:22;;;;;;;20.55;9.90;;;1.10;99.90;;;;;;4886608;28;20114;-51
2024/02/26 08:15:48;;;;;;;17.92;10.57;;;1.10;99.90;;;;;;4937951;28;20049;-51
2024/02/26 08:18:13;;;;;;;18.38;10.85;;;1.10;99.90;;;;;;4880095;28;20049;-50
2024/02/26 08:20:39;;;;;;;20.65;11.13;;;1.20;99.90;;;;;;4886539;28;20489;-51
2024/02/26 08:23:04;;;;;;;22.77;11.70;;;1.20;99.90;;;;;;4930501;28;20045;-49
2024/02/26 08:25:30;;;;;;;20.45;11.68;;;1.30;99.90;;;;;;4887551;28;20041;-50
2024/02/26 08:27:56;;;;;;;17.05;10.27;;;1.30;99.90;;;;;;4903556;28;20053;-57
2024/02/26 08:30:21;;;;;;;18.80;10.60;;;1.40;99.90;;;;;;4914977;28;20034;-50
2024/02/26 08:32:47;;;;;;;20.42;10.95;;;1.40;99.90;;;;;;4887836;28;21228;-49
2024/02/26 08:35:13;;;;;;;17.00;10.68;;;1.50;99.90;;;;;;4927157;28;20045;-52
2024/02/26 08:37:39;;;;;;;23.50;11.43;;;1.50;99.90;;;;;;4879143;28;20039;-51
2024/02/26 08:40:06;;;;;;;21.17;11.93;;;1.60;99.90;;;;;;4884448;28;20034;-48
2024/02/26 08:42:31;;;;;;;18.20;11.80;;;1.60;99.90;;;;;;4929761;28;20180;-52
2024/02/26 08:45:00;;;;;;;19.83;11.35;;;1.70;99.90;;;;;;4918885;28;20026;-53
2024/02/26 08:47:26;;;;;;;23.27;12.15;;;1.70;99.90;;;;;;4940609;28;20031;-57
2024/02/26 08:49:51;;;;;;;27.15;12.52;;;1.80;99.90;;;;;;4911147;28;20070;-49
2024/02/26 08:52:17;;;;;;;23.50;12.60;;;1.80;99.90;;;;;;4874612;28;21979;-58
2024/02/26 08:54:42;;;;;;;20.95;11.68;;;1.80;99.90;;;;;;4925417;28;20030;-51
2024/02/26 08:57:08;;;;;;;21.42;11.45;;;1.90;99.90;;;;;;4879996;28;20037;-49
2024/02/26 08:59:34;;;;;;;22.88;12.43;;;1.90;99.90;;;;;;4865539;28;20114;-48
2024/02/26 09:01:59;;;;;;;24.05;11.43;;;2.00;99.90;;;;;;4922108;28;20062;-48
2024/02/26 09:04:26;;;;;;;22.25;12.07;;;2.00;99.90;;;;;;4866866;28;20544;-50
2024/02/26 09:06:52;;;;;;;22.13;12.98;;;2.10;99.90;;;;;;4941974;28;20034;-57
2024/02/26 09:09:17;;;;;;;27.58;12.90;;;2.10;99.90;;;;;;4904562;28;20041;-49
2024/02/26 09:11:43;;;;;;;32.35;13.40;;;2.10;99.90;;;;;;4882073;28;21169;-49
2024/02/26 09:14:09;;;;;;;26.95;12.82;;;2.10;99.90;;;;;;4919049;28;20042;-47
2024/02/26 09:16:34;;;;;;;30.00;13.45;;;2.10;99.90;;;;;;4870641;28;20389;-49
2024/02/26 09:19:00;;;;;;;20.92;12.38;;;2.20;99.90;;;;;;4869611;28;20538;-57
2024/02/26 09:21:26;;;;;;;28.48;13.35;;;2.20;99.90;;;;;;4918186;28;20023;-49
2024/02/26 09:23:52;;;;;;;21.27;13.20;;;2.30;99.90;;;;;;4873299;28;21618;-50
2024/02/26 09:26:18;;;;;;;23.83;12.75;;;2.30;99.90;;;;;;4918887;28;20030;-52
2024/02/26 09:28:45;;;;;;;38.33;14.18;;;2.30;99.90;;;;;;4859640;28;20050;-52
2024/02/26 09:31:11;;;;;;;28.77;13.43;;;2.40;99.90;;;;;;4871122;28;21760;-48
2024/02/26 09:33:36;;;;;;;28.75;14.52;;;2.40;99.90;;;;;;4912307;28;21545;-50
2024/02/26 09:36:03;;;;;;;26.45;14.35;;;2.50;99.90;;;;;;4869981;28;20030;-51
2024/02/26 09:38:29;;;;;;;31.13;15.82;;;2.50;99.90;;;;;;4869022;28;20066;-56
2024/02/26 09:40:57;;;;;;;29.75;16.05;;;2.60;99.90;;;;;;4891738;28;20045;-47
2024/02/26 09:43:23;;;;;;;29.88;14.65;;;2.60;99.90;;;;;;4864634;28;20045;-51
2024/02/26 09:45:54;;;;;;;26.38;14.32;;;2.70;99.90;;;;;;4914538;28;20035;-52
2024/02/26 09:48:22;;;;;;;27.75;15.85;;;2.90;99.90;;;;;;4887140;28;20451;-52
2024/02/26 09:50:48;;;;;;;27.33;14.63;;;2.90;99.90;;;;;;4861155;28;21307;-51
2024/02/26 09:53:14;;;;;;;29.90;15.48;;;2.90;99.90;;;;;;4899686;28;20554;-53
2024/02/26 09:55:40;;;;;;;25.42;15.00;;;3.00;99.90;;;;;;4858454;28;20521;-49
2024/02/26 09:58:07;;;;;;;26.88;14.23;;;3.10;99.90;;;;;;4846469;28;20376;-48
2024/02/26 10:00:37;;;;;;;30.05;16.25;;;3.20;99.90;;;;;;4937508;28;20041;-49
2024/02/26 10:03:09;;;;;;;29.17;15.15;;;3.20;99.90;;;;;;4918025;28;20030;-50
2024/02/26 10:05:37;;;;;;;28.90;15.27;;;3.20;99.90;;;;;;4843060;28;20303;-47
2024/02/26 10:08:04;;;;;;;31.30;15.55;;;3.30;99.90;;;;;;4908720;28;20045;-50
2024/02/26 10:10:32;;;;;;;30.85;16.00;;;3.30;99.90;;;;;;4864067;28;20048;-49
2024/02/26 10:13:00;;;;;;;29.00;16.33;;;3.40;99.90;;;;;;4876587;28;20026;-56
2024/02/26 10:15:26;;;;;;;32.17;15.63;;;3.40;99.90;;;;;;4907916;28;20072;-46
2024/02/26 10:17:51;;;;;;;28.90;15.23;;;3.50;99.90;;;;;;4862006;28;21850;-48
2024/02/26 10:20:18;;;;;;;28.10;15.85;;;3.50;99.90;;;;;;4906961;28;20081;-57
2024/02/26 10:22:44;;;;;;;31.48;14.98;;;3.60;99.90;;;;;;4875525;28;20133;-48
2024/02/26 10:25:10;;;;;;;30.05;16.73;;;3.60;99.90;;;;;;4846249;28;21607;-48
2024/02/26 10:27:36;;;;;;;28.77;15.30;;;3.70;99.90;;;;;;4900117;28;21872;-51
2024/02/26 10:30:17;;;;;;;34.70;16.40;;;3.80;99.90;;;;;;4859623;28;20042;-47
2024/02/26 10:32:44;;;;;;;27.52;15.55;;;3.80;99.90;;;;;;4897267;28;22031;-50
2024/02/26 10:35:09;;;;;;;28.55;16.10;;;3.80;99.90;;;;;;4893651;28;20030;-48
2024/02/26 10:37:35;;;;;;;22.77;14.63;;;3.90;99.90;;;;;;4896213;28;20624;-49
2024/02/26 10:40:03;;;;;;;26.13;16.20;;;3.90;99.90;;;;;;4911298;28;20033;-51
2024/02/26 10:42:28;;;;;;;24.50;14.18;;;3.90;99.90;;;;;;4893449;28;20042;-51
2024/02/26 10:44:54;;;;;;;25.40;14.30;;;4.00;99.90;;;;;;4953957;28;20108;-48
2024/02/26 10:47:20;;;;;;;23.98;14.00;;;4.10;99.90;;;;;;4949474;28;20041;-48
2024/02/26 10:49:49;;;;;;;29.70;16.35;;;4.20;99.90;;;;;;4913744;28;20049;-48
2024/02/26 10:52:18;;;;;;;27.00;16.10;;;4.30;99.90;;;;;;4915264;28;20049;-51
2024/02/26 10:54:47;;;;;;;28.02;15.85;;;4.30;99.90;;;;;;4900192;28;20030;-48
2024/02/26 10:57:14;;;;;;;27.33;15.27;;;4.40;99.90;;;;;;4934467;28;20065;-47
2024/02/26 10:59:42;;;;;;;27.08;15.57;;;4.40;99.90;;;;;;4903565;28;20173;-49
2024/02/26 11:02:09;;;;;;;24.67;15.60;;;4.50;99.90;;;;;;4962197;28;20038;-49
2024/02/26 11:04:37;;;;;;;29.30;16.25;;;4.60;99.90;;;;;;4901816;28;20611;-49
2024/02/26 11:07:04;;;;;;;26.95;16.75;;;4.70;99.90;;;;;;4890238;28;20089;-48
2024/02/26 11:09:31;;;;;;;25.48;16.27;;;4.80;99.90;;;;;;4889869;28;20027;-47
2024/02/26 11:11:59;;;;;;;23.40;13.70;;;4.90;99.90;;;;;;4936838;28;20030;-47
2024/02/26 11:14:25;;;;;;;23.35;13.82;;;4.90;99.90;;;;;;4933726;28;20027;-55
2024/02/26 11:16:54;;;;;;;20.23;14.00;;;5.00;99.90;;;;;;4915288;28;20034;-54
2024/02/26 11:19:20;;;;;;;20.63;14.38;;;5.10;99.90;;;;;;4893317;28;20115;-47
2024/02/26 11:21:47;;;;;;;22.35;14.35;;;5.10;99.90;;;;;;4932124;28;20052;-47
2024/02/26 11:24:15;;;;;;;23.90;14.00;;;5.10;99.90;;;;;;4936202;28;20045;-51
2024/02/26 11:26:58;;;;;;;19.08;12.77;;;5.10;99.90;;;;;;4901130;28;20027;-47
2024/02/26 11:29:27;;;;;;;19.23;13.18;;;5.00;99.90;;;;;;4951264;28;20057;-57
2024/02/26 11:31:53;;;;;;;20.42;11.70;;;5.00;99.90;;;;;;4934100;28;20018;-54
2024/02/26 11:34:19;;;;;;;21.35;13.23;;;5.00;99.90;;;;;;4912912;28;20042;-48
2024/02/26 11:36:48;;;;;;;22.00;12.98;;;4.90;99.90;;;;;;4883242;28;20030;-48
2024/02/26 11:39:16;;;;;;;18.05;12.13;;;5.00;99.90;;;;;;4968791;28;20033;-50
2024/02/26 11:41:42;;;;;;;18.58;11.85;;;5.10;99.90;;;;;;4961753;28;20160;-50
2024/02/26 11:44:08;;;;;;;18.67;11.73;;;5.10;99.90;;;;;;4957860;28;20027;-49
2024/02/26 11:46:40;;;;;;;18.10;12.27;;;5.20;99.90;;;;;;4956751;28;20037;-51
2024/02/26 11:49:23;;;;;;;16.92;11.55;;;5.20;99.90;;;;;;4948719;28;20027;-50
2024/02/26 11:52:00;;;;;;;17.77;12.38;;;5.10;99.90;;;;;;4941285;28;20085;-47
2024/02/26 11:54:55;;;;;;;18.42;11.20;;;5.20;99.90;;;;;;4930184;28;20062;-49
2024/02/26 11:57:21;;;;;;;18.10;11.85;;;5.20;99.90;;;;;;4931978;28;20043;-54
2024/02/26 11:59:47;;;;;;;17.73;11.13;;;5.20;99.90;;;;;;4961199;28;20031;-48
2024/02/26 12:02:46;;;;;;;16.25;11.13;;;5.30;99.90;;;;;;4939095;28;21632;-46
2024/02/26 12:05:16;;;;;;;16.63;10.45;;;5.30;99.90;;;;;;4931648;28;22219;-48
2024/02/26 12:07:45;;;;;;;15.10;10.27;;;5.30;99.90;;;;;;4958310;28;20159;-54
2024/02/26 12:10:41;;;;;;;13.55;9.88;;;5.30;99.90;;;;;;4951088;28;20263;-51
2024/02/26 12:13:14;;;;;;;14.38;9.57;;;5.30;99.90;;;;;;4926718;28;20641;-51
2024/02/26 12:15:57;;;;;;;15.82;9.98;;;5.30;99.90;;;;;;4937310;28;20129;-53
2024/02/26 12:18:26;;;;;;;14.52;10.13;;;5.30;99.90;;;;;;4929537;28;20033;-54
2024/02/26 12:21:02;;;;;;;14.82;9.98;;;5.20;99.90;;;;;;4964854;28;20034;-52
2024/02/26 12:23:28;;;;;;;15.27;9.05;;;5.20;99.90;;;;;;4941215;28;20490;-48
2024/02/26 12:25:58;;;;;;;15.73;9.25;;;5.20;99.90;;;;;;4933328;28;20038;-53
2024/02/26 12:28:27;;;;;;;13.32;8.73;;;5.20;99.90;;;;;;4928745;28;20137;-48
2024/02/26 12:30:52;;;;;;;14.52;10.40;;;5.20;99.90;;;;;;4944415;28;20026;-50
2024/02/26 12:33:18;;;;;;;13.25;9.25;;;5.30;99.90;;;;;;4950732;28;20035;-53
2024/02/26 12:35:47;;;;;;;15.98;10.38;;;5.40;99.90;;;;;;4958862;22;20173;-85
2024/02/26 12:38:14;;;;;;;16.05;10.38;;;5.30;99.90;;;;;;4909236;28;21809;-85